createdAt,value
2023-01-01T00:01:41.601Z,99769.19
2023-01-01T00:04:14.296Z,99764.47
2023-01-01T00:06:42.268Z,99765.09
2023-01-01T00:09:29.115Z,99770.84
2023-01-01T00:11:56.793Z,99775.59
2023-01-01T00:14:24.412Z,99776.19
2023-01-01T00:16:52.275Z,99783.19
2023-01-01T00:19:19.876Z,99782.34
2023-01-01T00:21:47.528Z,99792.41
2023-01-01T00:24:16.443Z,99780.94
2023-01-01T00:26:44.020Z,99782.97
2023-01-01T00:29:11.719Z,99786.25
2023-01-01T00:31:39.465Z,99787.06
2023-01-01T00:34:07.135Z,99781.53
2023-01-01T00:36:34.717Z,99775.34
2023-01-01T00:39:03.063Z,99781.31
2023-01-01T00:41:32.124Z,99775.78
2023-01-01T00:44:00.147Z,99781.31
2023-01-01T00:46:27.842Z,99777.44
2023-01-01T00:48:55.533Z,99779.28
2023-01-01T00:51:23.106Z,99769.22
2023-01-01T00:53:50.740Z,99771.06
2023-01-01T00:56:18.274Z,99771.88
2023-01-01T00:59:00.585Z,99767.97
2023-01-01T01:01:29.429Z,99762.81
2023-01-01T01:03:57.312Z,99749.06
2023-01-01T01:06:25.088Z,99750.28
2023-01-01T01:08:52.672Z,99753.38
2023-01-01T01:11:22.231Z,99749.06
2023-01-01T01:13:53.335Z,99757.72
2023-01-01T01:16:24.378Z,99747.63
2023-01-01T01:18:53.102Z,99752.38
2023-01-01T01:21:23.845Z,99769.22
2023-01-01T01:23:52.521Z,99779.47
2023-01-01T01:26:21.771Z,99780.91
2023-01-01T01:28:51.241Z,99769.41
2023-01-01T01:31:19.867Z,99769.59
2023-01-01T01:33:48.387Z,99765.28
2023-01-01T01:36:17.900Z,99782.53
2023-01-01T01:38:46.446Z,99775.97
2023-01-01T01:41:26.866Z,99779.66
2023-01-01T01:44:00.162Z,99783.38
2023-01-01T01:46:32.730Z,99781.50
2023-01-01T01:49:03.711Z,99789.31
2023-01-01T01:51:37.750Z,99790.13
2023-01-01T01:54:11.560Z,99776.38
2023-01-01T01:56:45.431Z,99779.03
2023-01-01T01:59:15.059Z,99781.88
2023-01-01T02:01:43.196Z,99788.69
2023-01-01T02:04:12.445Z,99797.09
2023-01-01T02:06:41.119Z,99799.56
2023-01-01T02:09:10.419Z,99805.53
2023-01-01T02:11:38.001Z,99789.72
2023-01-01T02:14:06.205Z,99796.00
2023-01-01T02:16:40.656Z,99794.16
2023-01-01T02:19:18.196Z,99801.59
2023-01-01T02:21:57.621Z,99801.63
2023-01-01T02:24:42.673Z,99805.09
2023-01-01T02:27:18.435Z,99783.50
2023-01-01T02:29:51.952Z,99794.41
2023-01-01T02:32:22.174Z,99785.19
2023-01-01T02:34:55.863Z,99785.31
2023-01-01T02:37:26.437Z,99788.44
2023-01-01T02:39:57.929Z,99788.84
2023-01-01T02:42:29.287Z,99792.34
2023-01-01T02:45:00.719Z,99797.53
2023-01-01T02:47:28.495Z,99803.19
2023-01-01T02:50:03.833Z,99808.94
2023-01-01T02:53:03.925Z,99820.22
2023-01-01T02:55:48.838Z,99809.06
2023-01-01T02:58:43.048Z,99817.31
2023-01-01T03:01:21.158Z,99803.56
2023-01-01T03:04:00.482Z,99810.94
2023-01-01T03:06:36.108Z,99801.91
2023-01-01T03:09:12.283Z,99805.59
2023-01-01T03:11:49.187Z,99804.59
2023-01-01T03:14:22.376Z,99804.00
2023-01-01T03:16:57.427Z,99802.97
2023-01-01T03:19:27.520Z,99804.19
2023-01-01T03:21:59.022Z,99796.63
2023-01-01T03:24:35.794Z,99814.88
2023-01-01T03:27:08.914Z,99794.75
2023-01-01T03:29:41.127Z,99796.06
2023-01-01T03:32:14.392Z,99811.63
2023-01-01T03:34:47.560Z,99802.66
2023-01-01T03:37:25.123Z,99802.38
2023-01-01T03:39:57.039Z,99810.44
2023-01-01T03:42:31.135Z,99817.66
2023-01-01T03:45:04.004Z,99808.63
2023-01-01T03:47:33.773Z,99818.06
2023-01-01T03:50:03.195Z,99812.91
2023-01-01T03:52:43.031Z,99816.19
2023-01-01T03:55:16.791Z,99813.09
2023-01-01T03:57:51.202Z,99813.56
2023-01-01T04:00:21.609Z,99822.59
2023-01-01T04:02:56.372Z,99829.56
2023-01-01T04:05:25.606Z,99816.63
2023-01-01T04:07:54.612Z,99817.41
2023-01-01T04:10:23.397Z,99811.25
2023-01-01T04:12:54.038Z,99808.38
2023-01-01T04:15:24.646Z,99809.19
2023-01-01T04:17:54.333Z,99823.38
2023-01-01T04:20:22.555Z,99820.22
2023-01-01T04:22:50.194Z,99812.72
2023-01-01T04:25:18.720Z,99819.25
2023-01-01T04:27:46.289Z,99835.66
2023-01-01T04:30:15.662Z,99832.56
2023-01-01T04:32:43.610Z,99829.25
2023-01-01T04:35:14.228Z,99845.91
2023-01-01T04:37:43.377Z,99855.50
2023-01-01T04:40:14.207Z,99855.78
2023-01-01T04:42:43.071Z,99855.69
2023-01-01T04:45:12.331Z,99851.75
2023-01-01T04:47:40.040Z,99866.78
2023-01-01T04:50:08.651Z,99872.03
2023-01-01T04:52:38.485Z,99863.22
2023-01-01T04:55:06.959Z,99867.63
2023-01-01T04:57:34.597Z,99872.88
2023-01-01T05:00:02.219Z,99879.50
2023-01-01T05:02:29.922Z,99876.72
2023-01-01T05:04:57.760Z,99884.97
2023-01-01T05:07:25.300Z,99890.47
2023-01-01T05:09:54.215Z,99886.59
2023-01-01T05:12:21.748Z,99888.06
2023-01-01T05:14:49.359Z,99891.97
2023-01-01T05:17:16.969Z,99894.91
2023-01-01T05:19:44.526Z,99892.81
2023-01-01T05:22:12.093Z,99890.38
2023-01-01T05:24:39.660Z,99890.06
2023-01-01T05:27:08.657Z,99900.16
2023-01-01T05:29:36.248Z,99901.81
2023-01-01T05:32:03.941Z,99900.50
2023-01-01T05:36:58.535Z,99895.38
2023-01-01T05:39:26.110Z,99898.47
2023-01-01T05:41:53.746Z,99893.03
2023-01-01T05:44:22.707Z,99886.50
2023-01-01T05:46:50.333Z,99886.38
2023-01-01T05:49:17.923Z,99892.47
2023-01-01T05:51:45.575Z,99876.75
2023-01-01T05:56:39.935Z,99894.69
2023-01-01T05:59:07.542Z,99896.19
2023-01-01T06:01:41.761Z,99898.19
2023-01-01T06:04:12.907Z,99896.91
2023-01-01T06:06:40.556Z,99897.44
2023-01-01T06:09:08.238Z,99901.16
2023-01-01T06:11:35.992Z,99897.28
2023-01-01T06:14:03.833Z,99905.69
2023-01-01T06:16:32.535Z,99908.19
2023-01-01T06:19:01.604Z,99927.69
2023-01-01T06:21:30.279Z,99917.09
2023-01-01T06:23:59.290Z,99921.63
2023-01-01T06:26:29.075Z,99933.53
2023-01-01T06:28:57.383Z,99939.50
2023-01-01T06:31:26.193Z,99931.41
2023-01-01T06:33:53.963Z,99929.75
2023-01-01T06:36:24.953Z,99940.91
2023-01-01T06:38:55.212Z,99934.56
2023-01-01T06:41:25.003Z,99927.72
2023-01-01T06:43:52.741Z,99936.38
2023-01-01T06:46:22.344Z,99943.53
2023-01-01T06:48:51.848Z,99953.91
2023-01-01T06:51:20.843Z,99958.03
2023-01-01T06:53:50.990Z,99954.75
2023-01-01T06:56:19.434Z,99970.94
2023-01-01T06:58:47.377Z,99962.53
2023-01-01T07:01:17.186Z,99959.34
2023-01-01T07:03:46.460Z,99963.81
2023-01-01T07:06:14.725Z,99955.28
2023-01-01T07:08:42.465Z,99965.53
2023-01-01T07:11:11.411Z,99960.38
2023-01-01T07:13:39.140Z,99969.19
2023-01-01T07:16:12.642Z,99973.25
2023-01-01T07:18:41.449Z,99981.00
2023-01-01T07:21:29.213Z,99989.19
2023-01-01T07:23:58.076Z,99992.13
2023-01-01T07:26:28.074Z,99991.09
2023-01-01T07:28:59.637Z,99984.69
2023-01-01T07:31:32.110Z,99992.50
2023-01-01T07:33:59.801Z,99988.19
2023-01-01T07:36:27.440Z,100005.13
2023-01-01T07:38:54.994Z,100010.94
2023-01-01T07:41:22.656Z,100019.34
2023-01-01T07:43:51.928Z,100027.75
2023-01-01T07:46:19.946Z,100023.63
2023-01-01T07:48:47.676Z,100023.00
2023-01-01T07:51:15.342Z,100032.78
2023-01-01T07:53:43.255Z,100043.44
2023-01-01T07:56:11.359Z,100050.22
2023-01-01T07:58:40.500Z,100046.94
2023-01-01T08:01:11.630Z,100046.13
2023-01-01T08:03:39.361Z,100037.22
2023-01-01T08:06:09.334Z,100040.19
2023-01-01T08:08:36.932Z,100033.03
2023-01-01T08:11:04.663Z,100029.72
2023-01-01T08:13:32.645Z,100038.53
2023-01-01T08:16:00.709Z,100029.78
2023-01-01T08:18:29.718Z,100034.53
2023-01-01T08:20:57.579Z,100030.84
2023-01-01T08:23:25.374Z,100032.06
2023-01-01T08:25:53.004Z,100039.31
2023-01-01T08:28:20.686Z,100037.66
2023-01-01T08:30:48.255Z,100045.06
2023-01-01T08:33:15.854Z,100047.09
2023-01-01T08:35:47.751Z,100055.56
2023-01-01T08:38:19.591Z,100048.38
2023-01-01T08:40:47.150Z,100058.66
2023-01-01T08:43:14.796Z,100058.53
2023-01-01T08:45:42.426Z,100053.97
2023-01-01T08:48:10.078Z,100054.16
2023-01-01T08:50:37.970Z,100054.59
2023-01-01T08:53:06.878Z,100061.00
2023-01-01T08:55:34.619Z,100053.38
2023-01-01T08:58:07.398Z,100057.75
2023-01-01T09:00:35.154Z,100066.81
2023-01-01T09:03:02.828Z,100074.59
2023-01-01T09:05:30.535Z,100078.91
2023-01-01T09:07:58.288Z,100070.91
2023-01-01T09:10:27.261Z,100085.97
2023-01-01T09:12:54.869Z,100086.75
2023-01-01T09:15:22.440Z,100090.53
2023-01-01T09:17:50.291Z,100096.53
2023-01-01T09:20:17.955Z,100097.59
2023-01-01T09:22:45.747Z,100099.06
2023-01-01T09:25:13.364Z,100101.72
2023-01-01T09:27:42.347Z,100089.53
2023-01-01T09:30:11.573Z,100105.13
2023-01-01T09:32:39.317Z,100108.25
2023-01-01T09:35:07.823Z,100115.31
2023-01-01T09:37:35.596Z,100104.94
2023-01-01T09:40:03.515Z,100099.53
2023-01-01T09:42:40.729Z,100103.91
2023-01-01T09:45:24.300Z,100109.50
2023-01-01T09:47:55.715Z,100108.34
2023-01-01T09:50:29.792Z,100117.88
2023-01-01T09:53:00.025Z,100121.66
2023-01-01T09:55:30.422Z,100123.97
2023-01-01T09:57:58.590Z,100125.06
2023-01-01T10:00:31.689Z,100122.53
2023-01-01T10:03:11.872Z,100120.28
2023-01-01T10:05:50.938Z,100113.59
2023-01-01T10:08:28.604Z,100111.00
2023-01-01T10:11:06.808Z,100112.78
2023-01-01T10:13:40.325Z,100117.09
2023-01-01T10:16:23.883Z,100119.13
2023-01-01T10:18:56.146Z,100115.03
2023-01-01T10:21:28.240Z,100104.00
2023-01-01T10:23:58.540Z,100104.72
2023-01-01T10:26:29.982Z,100091.84
2023-01-01T10:29:04.099Z,100094.03
2023-01-01T10:31:35.221Z,100097.56
2023-01-01T10:34:13.242Z,100100.88
2023-01-01T10:36:41.164Z,100089.66
2023-01-01T10:39:10.438Z,100087.91
2023-01-01T10:41:38.108Z,100085.78
2023-01-01T10:44:07.272Z,100084.75
2023-01-01T10:46:38.119Z,100078.47
2023-01-01T10:49:12.041Z,100081.03
2023-01-01T10:51:44.820Z,100083.53
2023-01-01T10:54:31.850Z,100080.44
2023-01-01T10:57:00.061Z,100074.50
2023-01-01T10:59:36.532Z,100075.28
2023-01-01T11:02:20.551Z,100079.81
2023-01-01T11:04:49.615Z,100079.81
2023-01-01T11:07:29.394Z,100080.84
2023-01-01T11:10:04.458Z,100078.81
2023-01-01T11:15:35.041Z,100082.25
2023-01-01T11:18:16.693Z,100085.13
2023-01-01T11:20:45.171Z,100081.97
2023-01-01T11:23:27.371Z,100084.13
2023-01-01T11:26:01.021Z,100076.09
2023-01-01T11:28:31.392Z,100066.63
2023-01-01T11:31:02.827Z,100063.56
2023-01-01T11:33:34.778Z,100060.06
2023-01-01T11:36:02.899Z,100053.69
2023-01-01T11:38:30.909Z,100047.09
2023-01-01T11:41:04.438Z,100047.72
2023-01-01T11:43:39.064Z,100050.19
2023-01-01T11:46:10.101Z,100042.13
2023-01-01T11:48:43.406Z,100037.34
2023-01-01T11:51:12.574Z,100041.91
2023-01-01T11:53:42.063Z,100031.44
2023-01-01T11:56:16.426Z,100034.53
2023-01-01T11:58:51.891Z,100033.91
2023-01-01T12:01:27.207Z,100028.56
2023-01-01T12:04:00.617Z,100033.28
2023-01-01T12:06:32.215Z,100033.50
2023-01-01T12:09:16.262Z,100038.03
2023-01-01T12:11:51.868Z,100030.19
2023-01-01T12:14:32.369Z,100022.59
2023-01-01T12:17:03.410Z,100035.69
2023-01-01T12:19:37.440Z,100022.41
2023-01-01T12:22:13.310Z,100023.63
2023-01-01T12:24:40.920Z,100018.91
2023-01-01T12:27:20.054Z,100016.81
2023-01-01T12:30:06.867Z,100028.16
2023-01-01T12:32:49.843Z,100011.06
2023-01-01T12:35:31.597Z,100024.66
2023-01-01T12:38:12.040Z,100021.56
2023-01-01T12:40:48.020Z,100021.47
2023-01-01T12:43:24.252Z,100014.34
2023-01-01T12:46:30.592Z,100012.31
2023-01-01T12:49:27.243Z,100014.50
2023-01-01T12:52:08.166Z,100020.84
2023-01-01T12:54:54.616Z,100019.00
2023-01-01T12:57:29.934Z,100020.56
2023-01-01T13:00:01.998Z,100010.16
2023-01-01T13:02:34.016Z,100017.97
2023-01-01T13:05:05.550Z,100010.59
2023-01-01T13:07:40.031Z,100021.28
2023-01-01T13:10:17.850Z,100015.09
2023-01-01T13:12:46.479Z,100016.69
2023-01-01T13:15:45.323Z,100011.19
2023-01-01T13:18:29.009Z,100004.81
2023-01-01T13:21:15.461Z,100003.38
2023-01-01T13:23:47.142Z,100010.38
2023-01-01T13:26:38.093Z,100011.25
2023-01-01T13:29:34.632Z,100009.41
2023-01-01T13:32:06.342Z,100015.78
2023-01-01T13:34:37.429Z,100006.72
2023-01-01T13:37:27.713Z,100013.47
2023-01-01T13:39:59.362Z,100005.66
2023-01-01T13:42:51.861Z,100006.44
2023-01-01T13:46:09.442Z,100005.44
2023-01-01T13:48:26.602Z,100004.59
2023-01-01T13:51:10.445Z,99997.22
2023-01-01T13:53:56.052Z,100002.44
2023-01-01T13:56:37.895Z,100006.53
2023-01-01T13:59:39.412Z,99997.09
2023-01-01T14:02:21.735Z,99987.63
2023-01-01T14:04:55.141Z,99993.19
2023-01-01T14:07:50.713Z,99995.63
2023-01-01T14:10:26.052Z,99992.97
2023-01-01T14:12:58.306Z,99993.38
2023-01-01T14:15:29.446Z,99993.38
2023-01-01T14:18:00.168Z,99999.34
2023-01-01T14:20:34.798Z,100003.25
2023-01-01T14:23:08.309Z,99996.69
2023-01-01T14:25:36.715Z,100006.09
2023-01-01T14:28:06.221Z,100005.25
2023-01-01T14:30:34.406Z,100011.47
2023-01-01T14:33:03.765Z,100011.84
2023-01-01T14:35:31.626Z,100011.28
2023-01-01T14:38:17.842Z,100009.84
2023-01-01T14:40:46.130Z,100014.75
2023-01-01T14:43:15.245Z,100010.19
2023-01-01T14:45:44.664Z,100009.59
2023-01-01T14:48:18.632Z,100006.00
2023-01-01T14:50:49.079Z,99999.91
2023-01-01T14:53:20.580Z,99997.59
2023-01-01T14:55:50.416Z,100002.19
2023-01-01T14:58:21.797Z,100001.78
2023-01-01T15:00:49.456Z,99988.34
2023-01-01T15:03:19.013Z,99984.25
2023-01-01T15:05:58.074Z,99987.94
2023-01-01T15:08:26.869Z,99993.66
2023-01-01T15:10:55.463Z,99996.06
2023-01-01T15:13:26.105Z,99993.09
2023-01-01T15:15:55.193Z,99991.94
2023-01-01T15:18:40.051Z,99989.81
2023-01-01T15:21:14.005Z,99986.88
2023-01-01T15:23:53.524Z,99981.50
2023-01-01T15:26:31.174Z,99976.31
2023-01-01T15:29:01.485Z,99976.34
2023-01-01T15:31:37.869Z,99978.34
2023-01-01T15:34:05.938Z,99981.34
2023-01-01T15:36:34.216Z,99959.59
2023-01-01T15:39:01.977Z,99975.38
2023-01-01T15:41:43.154Z,99973.63
2023-01-01T15:44:27.336Z,99968.28
2023-01-01T15:47:04.249Z,99977.53
2023-01-01T15:49:33.279Z,99977.38
2023-01-01T15:52:04.137Z,99977.88
2023-01-01T15:54:33.392Z,99974.31
2023-01-01T15:57:01.057Z,99973.38
2023-01-01T15:59:34.692Z,99978.19
2023-01-01T16:02:13.549Z,99981.53
2023-01-01T16:04:45.892Z,99985.16
2023-01-01T16:07:19.107Z,99986.13
2023-01-01T16:09:50.539Z,99972.81
2023-01-01T16:12:21.917Z,99976.59
2023-01-01T16:14:50.852Z,99978.16
2023-01-01T16:17:21.217Z,99963.03
2023-01-01T16:19:51.418Z,99962.59
2023-01-01T16:22:20.362Z,99960.41
2023-01-01T16:24:48.216Z,99963.91
2023-01-01T16:27:15.761Z,99956.28
2023-01-01T16:29:44.279Z,99960.25
2023-01-01T16:32:18.318Z,99949.88
2023-01-01T16:34:45.986Z,99950.31
2023-01-01T16:37:13.558Z,99952.16
2023-01-01T16:39:41.195Z,99945.09
2023-01-01T16:42:12.220Z,99945.28
2023-01-01T16:44:42.032Z,99954.19
2023-01-01T16:47:09.911Z,99957.28
2023-01-01T16:49:38.917Z,99951.44
2023-01-01T16:52:06.511Z,99947.59
2023-01-01T16:54:34.983Z,99937.91
2023-01-01T16:57:02.635Z,99930.34
2023-01-01T16:59:30.283Z,99927.56
2023-01-01T17:01:58.034Z,99910.53
2023-01-01T17:04:25.780Z,99908.34
2023-01-01T17:06:54.880Z,99903.53
2023-01-01T17:09:22.439Z,99911.91
2023-01-01T17:11:50.013Z,99921.53
2023-01-01T17:14:17.604Z,99910.44
2023-01-01T17:16:45.238Z,99901.00
2023-01-01T17:19:14.866Z,99917.88
2023-01-01T17:21:43.973Z,99915.41
2023-01-01T17:24:12.866Z,99908.88
2023-01-01T17:26:40.445Z,99909.53
2023-01-01T17:29:08.140Z,99914.47
2023-01-01T17:31:36.358Z,99906.75
2023-01-01T17:34:04.831Z,99914.44
2023-01-01T17:36:32.437Z,99917.94
2023-01-01T17:39:00.246Z,99902.16
2023-01-01T17:41:29.174Z,99921.88
2023-01-01T17:43:57.522Z,99910.06
2023-01-01T17:46:28.190Z,99908.13
2023-01-01T17:48:56.055Z,99912.91
2023-01-01T17:51:24.224Z,99897.69
2023-01-01T17:53:52.046Z,99900.00
2023-01-01T17:56:25.012Z,99897.34
2023-01-01T17:58:54.710Z,99894.19
2023-01-01T18:01:31.538Z,99895.28
2023-01-01T18:04:01.114Z,99895.09
2023-01-01T18:06:30.437Z,99888.50
2023-01-01T18:08:59.930Z,99883.38
2023-01-01T18:11:29.496Z,99877.03
2023-01-01T18:13:59.785Z,99852.75
2023-01-01T18:16:28.345Z,99845.31
2023-01-01T18:18:56.803Z,99846.91
2023-01-01T18:21:24.817Z,99848.56
2023-01-01T18:23:54.010Z,99845.91
2023-01-01T18:26:23.583Z,99850.13
2023-01-01T18:28:53.012Z,99840.19
2023-01-01T18:31:23.069Z,99840.34
2023-01-01T18:33:51.498Z,99836.72
2023-01-01T18:36:23.563Z,99842.91
2023-01-01T18:38:57.836Z,99843.06
2023-01-01T18:41:41.139Z,99843.25
2023-01-01T18:44:19.395Z,99841.75
2023-01-01T18:46:53.681Z,99837.28
2023-01-01T18:49:23.858Z,99835.50
2023-01-01T18:51:55.200Z,99830.19
2023-01-01T18:54:23.185Z,99821.94
2023-01-01T18:56:51.886Z,99824.78
2023-01-01T18:59:22.557Z,99818.19
2023-01-01T19:01:52.062Z,99816.63
2023-01-01T19:04:21.248Z,99823.13
2023-01-01T19:06:48.973Z,99815.06
2023-01-01T19:09:21.597Z,99808.69
2023-01-01T19:11:50.081Z,99817.03
2023-01-01T19:14:19.354Z,99817.53
2023-01-01T19:16:48.292Z,99809.84
2023-01-01T19:19:20.133Z,99817.25
2023-01-01T19:21:51.884Z,99811.75
2023-01-01T19:24:23.018Z,99803.16
2023-01-01T19:26:56.044Z,99795.75
2023-01-01T19:29:25.327Z,99791.47
2023-01-01T19:31:55.279Z,99794.19
2023-01-01T19:34:25.766Z,99787.91
2023-01-01T19:36:54.105Z,99780.22
2023-01-01T19:39:21.885Z,99779.91
2023-01-01T19:41:49.631Z,99791.78
2023-01-01T19:44:22.971Z,99795.06
2023-01-01T19:46:52.768Z,99790.75
2023-01-01T19:49:20.533Z,99788.56
2023-01-01T19:51:49.895Z,99791.97
2023-01-01T19:54:17.670Z,99788.06
2023-01-01T19:56:45.760Z,99782.56
2023-01-01T19:59:13.530Z,99780.31
2023-01-01T20:01:41.356Z,99780.56
2023-01-01T20:04:09.460Z,99774.19
2023-01-01T20:06:37.873Z,99781.47
2023-01-01T20:09:06.970Z,99781.72
2023-01-01T20:11:36.034Z,99780.63
2023-01-01T20:14:03.742Z,99787.41
2023-01-01T20:16:32.565Z,99786.50
2023-01-01T20:19:00.362Z,99787.41
2023-01-01T20:21:47.470Z,99774.38
2023-01-01T20:24:17.588Z,99780.00
2023-01-01T20:26:45.234Z,99778.28
2023-01-01T20:29:21.997Z,99774.91
2023-01-01T20:31:51.652Z,99777.03
2023-01-01T20:34:19.638Z,99782.72
2023-01-01T20:37:05.335Z,99767.63
2023-01-01T20:39:34.984Z,99772.81
2023-01-01T20:42:03.094Z,99778.44
2023-01-01T20:44:31.435Z,99774.41
2023-01-01T20:46:59.998Z,99780.81
2023-01-01T20:49:27.667Z,99777.97
2023-01-01T20:51:55.458Z,99773.28
2023-01-01T20:54:24.535Z,99787.03
2023-01-01T20:56:53.617Z,99781.75
2023-01-01T20:59:38.078Z,99789.91
2023-01-01T21:02:07.120Z,99787.28
2023-01-01T21:04:38.107Z,99793.19
2023-01-01T21:07:05.863Z,99791.06
2023-01-01T21:09:33.492Z,99803.00
2023-01-01T21:12:02.483Z,99800.72
2023-01-01T21:14:30.100Z,99803.31
2023-01-01T21:16:58.120Z,99809.34
2023-01-01T21:19:27.254Z,99807.56
2023-01-01T21:21:57.115Z,99812.69
2023-01-01T21:24:28.725Z,99806.09
2023-01-01T21:27:06.638Z,99807.19
2023-01-01T21:29:34.379Z,99813.97
2023-01-01T21:32:20.000Z,99809.56
2023-01-01T21:34:50.408Z,99809.34
2023-01-01T21:37:43.931Z,99810.63
2023-01-01T21:40:38.427Z,99806.75
2023-01-01T21:43:33.339Z,99803.13
2023-01-01T21:46:17.106Z,99801.66
2023-01-01T21:48:55.345Z,99803.53
2023-01-01T21:51:25.232Z,99797.41
2023-01-01T21:53:55.035Z,99799.91
2023-01-01T21:56:29.389Z,99798.84
2023-01-01T21:59:21.256Z,99807.50
2023-01-01T22:01:50.144Z,99798.19
2023-01-01T22:04:22.997Z,99792.22
2023-01-01T22:06:52.413Z,99796.06
2023-01-01T22:09:23.813Z,99796.25
2023-01-01T22:11:54.376Z,99798.03
2023-01-01T22:14:28.238Z,99798.19
2023-01-01T22:16:56.854Z,99800.25
2023-01-01T22:19:29.475Z,99799.69
2023-01-01T22:21:57.202Z,99809.41
2023-01-01T22:24:33.304Z,99805.84
2023-01-01T22:27:18.848Z,99808.28
2023-01-01T22:29:47.982Z,99801.09
2023-01-01T22:32:20.639Z,99801.94
2023-01-01T22:34:49.568Z,99804.50
2023-01-01T22:37:20.288Z,99803.38
2023-01-01T22:39:48.496Z,99791.75
2023-01-01T22:42:18.319Z,99806.47
2023-01-01T22:44:54.299Z,99804.31
2023-01-01T22:47:21.932Z,99792.09
2023-01-01T22:49:52.972Z,99802.84
2023-01-01T22:52:20.580Z,99801.00
2023-01-01T22:54:48.159Z,99802.47
2023-01-01T22:57:15.713Z,99800.25
2023-01-01T22:59:43.283Z,99799.03
2023-01-01T23:02:12.256Z,99791.16
2023-01-01T23:04:39.972Z,99810.78
2023-01-01T23:07:14.062Z,99797.19
2023-01-01T23:09:42.447Z,99807.31
2023-01-01T23:12:10.541Z,99806.31
2023-01-01T23:14:56.132Z,99798.06
2023-01-01T23:17:25.110Z,99801.00
2023-01-01T23:19:53.503Z,99803.50
2023-01-01T23:22:21.729Z,99799.03
2023-01-01T23:24:49.319Z,99793.38
2023-01-01T23:27:16.878Z,99795.28
2023-01-01T23:29:46.880Z,99787.56
2023-01-01T23:32:15.317Z,99787.19
2023-01-01T23:34:45.760Z,99791.41
2023-01-01T23:37:15.278Z,99790.81
2023-01-01T23:39:43.270Z,99789.69
2023-01-01T23:42:10.873Z,99787.16
2023-01-01T23:44:38.741Z,99786.91
2023-01-01T23:47:06.434Z,99782.06
2023-01-01T23:49:34.762Z,99772.25
2023-01-01T23:52:04.949Z,99769.28
2023-01-01T23:54:32.555Z,99769.72
2023-01-01T23:57:00.131Z,99753.25
2023-01-01T23:59:27.769Z,99747.66
